sensor_id;sensor_type;location;lat;lon;timestamp;pressure;altitude;pressure_sealevel;temperature;humidity
12781;BME280;6454;43.304;24.344;2023-04-08T00:00:43;100623.00;;;6.64;82.44
12781;BME280;6454;43.304;24.344;2023-04-08T00:03:10;100624.31;;;6.62;82.61
12781;BME280;6454;43.304;24.344;2023-04-08T00:05:37;100618.34;;;6.60;82.67
12781;BME280;6454;43.304;24.344;2023-04-08T00:08:06;100622.63;;;6.56;82.71
12781;BME280;6454;43.304;24.344;2023-04-08T00:10:33;100621.38;;;6.46;83.02
12781;BME280;6454;43.304;24.344;2023-04-08T00:12:59;100622.41;;;6.40;82.64
12781;BME280;6454;43.304;24.344;2023-04-08T00:15:26;100585.03;;;5.94;82.52
12781;BME280;6454;43.304;24.344;2023-04-08T00:17:53;100624.41;;;6.33;82.56
12781;BME280;6454;43.304;24.344;2023-04-08T00:20:21;100612.94;;;6.38;82.63
12781;BME280;6454;43.304;24.344;2023-04-08T00:22:48;100613.72;;;6.38;83.36
12781;BME280;6454;43.304;24.344;2023-04-08T00:25:16;100610.03;;;6.44;83.53
12781;BME280;6454;43.304;24.344;2023-04-08T00:27:58;100601.13;;;6.44;83.64
12781;BME280;6454;43.304;24.344;2023-04-08T00:30:25;100604.91;;;6.43;83.68
12781;BME280;6454;43.304;24.344;2023-04-08T00:32:53;100600.59;;;6.42;83.62
12781;BME280;6454;43.304;24.344;2023-04-08T00:35:20;100601.63;;;6.41;83.88
12781;BME280;6454;43.304;24.344;2023-04-08T00:37:47;100607.34;;;6.44;83.75
12781;BME280;6454;43.304;24.344;2023-04-08T00:40:15;100552.13;;;6.09;83.63
12781;BME280;6454;43.304;24.344;2023-04-08T00:42:42;100610.78;;;6.40;83.93
12781;BME280;6454;43.304;24.344;2023-04-08T00:45:10;100571.41;;;6.17;83.64
12781;BME280;6454;43.304;24.344;2023-04-08T00:47:37;100616.69;;;6.37;84.01
12781;BME280;6454;43.304;24.344;2023-04-08T00:50:07;100607.22;;;6.34;84.15
12781;BME280;6454;43.304;24.344;2023-04-08T00:52:34;100609.63;;;6.36;83.55
12781;BME280;6454;43.304;24.344;2023-04-08T00:55:00;100604.59;;;6.39;84.00
12781;BME280;6454;43.304;24.344;2023-04-08T00:57:29;100612.25;;;6.31;84.26
12781;BME280;6454;43.304;24.344;2023-04-08T00:59:56;100614.47;;;6.34;84.42
12781;BME280;6454;43.304;24.344;2023-04-08T01:02:40;100609.06;;;6.34;84.29
12781;BME280;6454;43.304;24.344;2023-04-08T01:05:13;100613.34;;;6.30;84.51
12781;BME280;6454;43.304;24.344;2023-04-08T01:07:44;100608.19;;;6.28;84.83
12781;BME280;6454;43.304;24.344;2023-04-08T01:10:16;100606.00;;;6.25;85.02
12781;BME280;6454;43.304;24.344;2023-04-08T01:12:49;100614.66;;;6.27;85.03
12781;BME280;6454;43.304;24.344;2023-04-08T01:15:17;100543.81;;;5.77;85.30
12781;BME280;6454;43.304;24.344;2023-04-08T01:17:45;100580.88;;;6.03;85.23
12781;BME280;6454;43.304;24.344;2023-04-08T01:20:14;100609.00;;;6.29;84.41
12781;BME280;6454;43.304;24.344;2023-04-08T01:22:54;100614.09;;;6.25;84.66
12781;BME280;6454;43.304;24.344;2023-04-08T01:25:29;100610.81;;;6.23;85.23
12781;BME280;6454;43.304;24.344;2023-04-08T01:27:59;100608.94;;;6.24;85.66
12781;BME280;6454;43.304;24.344;2023-04-08T01:30:27;100608.03;;;6.18;86.11
12781;BME280;6454;43.304;24.344;2023-04-08T01:32:56;100605.34;;;6.18;86.14
12781;BME280;6454;43.304;24.344;2023-04-08T01:35:25;100614.50;;;6.17;86.08
12781;BME280;6454;43.304;24.344;2023-04-08T01:37:53;100612.38;;;6.19;85.43
12781;BME280;6454;43.304;24.344;2023-04-08T01:40:20;100619.06;;;6.17;85.39
12781;BME280;6454;43.304;24.344;2023-04-08T01:42:48;100551.81;;;5.72;85.25
12781;BME280;6454;43.304;24.344;2023-04-08T01:45:18;100567.41;;;5.70;85.97
12781;BME280;6454;43.304;24.344;2023-04-08T01:47:45;100598.91;;;5.86;86.11
12781;BME280;6454;43.304;24.344;2023-04-08T01:50:13;100621.78;;;6.00;86.56
12781;BME280;6454;43.304;24.344;2023-04-08T01:52:42;100636.38;;;6.04;86.25
12781;BME280;6454;43.304;24.344;2023-04-08T01:55:10;100636.75;;;5.96;86.44
12781;BME280;6454;43.304;24.344;2023-04-08T01:57:38;100636.75;;;5.96;86.77
12781;BME280;6454;43.304;24.344;2023-04-08T02:00:09;100628.78;;;6.01;86.28
12781;BME280;6454;43.304;24.344;2023-04-08T02:02:40;100638.41;;;5.97;86.78
12781;BME280;6454;43.304;24.344;2023-04-08T02:05:08;100632.28;;;6.02;86.06
12781;BME280;6454;43.304;24.344;2023-04-08T02:07:34;100630.97;;;6.04;85.91
12781;BME280;6454;43.304;24.344;2023-04-08T02:10:02;100640.22;;;6.08;85.71
12781;BME280;6454;43.304;24.344;2023-04-08T02:12:29;100631.06;;;6.09;85.31
12781;BME280;6454;43.304;24.344;2023-04-08T02:14:56;100639.06;;;6.04;85.64
12781;BME280;6454;43.304;24.344;2023-04-08T02:17:28;100635.81;;;6.02;85.71
12781;BME280;6454;43.304;24.344;2023-04-08T02:20:04;100574.06;;;5.67;85.13
12781;BME280;6454;43.304;24.344;2023-04-08T02:22:39;100638.31;;;6.09;85.41
12781;BME280;6454;43.304;24.344;2023-04-08T02:25:11;100633.84;;;6.14;85.72
12781;BME280;6454;43.304;24.344;2023-04-08T02:27:39;100632.28;;;6.18;85.81
12781;BME280;6454;43.304;24.344;2023-04-08T02:30:07;100627.13;;;6.17;86.05
12781;BME280;6454;43.304;24.344;2023-04-08T02:32:36;100630.41;;;6.19;85.91
12781;BME280;6454;43.304;24.344;2023-04-08T02:35:05;100625.19;;;6.12;85.99
12781;BME280;6454;43.304;24.344;2023-04-08T02:37:33;100558.97;;;5.66;86.06
12781;BME280;6454;43.304;24.344;2023-04-08T02:40:00;100621.84;;;6.05;85.91
12781;BME280;6454;43.304;24.344;2023-04-08T02:42:27;100613.78;;;6.05;85.74
12781;BME280;6454;43.304;24.344;2023-04-08T02:44:55;100611.66;;;6.07;85.40
12781;BME280;6454;43.304;24.344;2023-04-08T02:47:22;100596.94;;;6.15;84.64
12781;BME280;6454;43.304;24.344;2023-04-08T02:49:49;100607.25;;;6.18;84.58
12781;BME280;6454;43.304;24.344;2023-04-08T02:52:19;100615.31;;;6.18;85.47
12781;BME280;6454;43.304;24.344;2023-04-08T02:54:46;100622.97;;;6.09;86.39
12781;BME280;6454;43.304;24.344;2023-04-08T02:57:13;100550.25;;;5.59;86.42
12781;BME280;6454;43.304;24.344;2023-04-08T02:59:41;100627.72;;;6.02;86.68
12781;BME280;6454;43.304;24.344;2023-04-08T03:02:08;100627.81;;;6.07;86.42
12781;BME280;6454;43.304;24.344;2023-04-08T03:04:34;100635.16;;;6.12;86.66
12781;BME280;6454;43.304;24.344;2023-04-08T03:07:01;100554.06;;;5.63;86.71
12781;BME280;6454;43.304;24.344;2023-04-08T03:09:29;100636.69;;;6.08;86.97
12781;BME280;6454;43.304;24.344;2023-04-08T03:11:56;100633.94;;;6.03;87.58
12781;BME280;6454;43.304;24.344;2023-04-08T03:14:23;100638.88;;;6.11;86.79
12781;BME280;6454;43.304;24.344;2023-04-08T03:16:50;100640.28;;;6.13;86.71
12781;BME280;6454;43.304;24.344;2023-04-08T03:19:17;100640.78;;;6.10;86.83
12781;BME280;6454;43.304;24.344;2023-04-08T03:21:43;100639.72;;;6.11;87.17
12781;BME280;6454;43.304;24.344;2023-04-08T03:24:10;100481.19;;;5.15;86.68
12781;BME280;6454;43.304;24.344;2023-04-08T03:26:38;100637.56;;;6.13;86.96
12781;BME280;6454;43.304;24.344;2023-04-08T03:29:05;100639.47;;;6.13;87.01
12781;BME280;6454;43.304;24.344;2023-04-08T03:31:32;100643.47;;;6.10;87.46
12781;BME280;6454;43.304;24.344;2023-04-08T03:33:59;100643.72;;;6.09;87.50
12781;BME280;6454;43.304;24.344;2023-04-08T03:36:26;100643.47;;;6.10;87.18
12781;BME280;6454;43.304;24.344;2023-04-08T03:38:52;100650.47;;;6.11;86.86
12781;BME280;6454;43.304;24.344;2023-04-08T03:41:19;100646.75;;;6.12;86.39
12781;BME280;6454;43.304;24.344;2023-04-08T03:43:48;100652.34;;;6.11;86.55
12781;BME280;6454;43.304;24.344;2023-04-08T03:46:15;100654.47;;;6.09;86.87
12781;BME280;6454;43.304;24.344;2023-04-08T03:48:41;100653.59;;;6.03;87.23
12781;BME280;6454;43.304;24.344;2023-04-08T03:51:08;100655.00;;;6.06;86.89
12781;BME280;6454;43.304;24.344;2023-04-08T03:53:35;100654.25;;;6.10;86.50
12781;BME280;6454;43.304;24.344;2023-04-08T03:56:02;100663.13;;;6.11;86.48
12781;BME280;6454;43.304;24.344;2023-04-08T03:58:29;100664.69;;;6.07;86.72
12781;BME280;6454;43.304;24.344;2023-04-08T04:00:57;100673.84;;;6.06;87.04
12781;BME280;6454;43.304;24.344;2023-04-08T04:03:24;100656.84;;;6.05;87.24
12781;BME280;6454;43.304;24.344;2023-04-08T04:05:51;100664.94;;;6.05;87.04
12781;BME280;6454;43.304;24.344;2023-04-08T04:08:18;100660.59;;;6.04;87.04
12781;BME280;6454;43.304;24.344;2023-04-08T04:10:45;100657.91;;;6.04;87.38
12781;BME280;6454;43.304;24.344;2023-04-08T04:13:11;100661.16;;;6.06;86.94
12781;BME280;6454;43.304;24.344;2023-04-08T04:15:39;100662.25;;;6.05;86.89
12781;BME280;6454;43.304;24.344;2023-04-08T04:18:07;100656.03;;;6.05;87.22
12781;BME280;6454;43.304;24.344;2023-04-08T04:20:34;100661.44;;;6.05;87.32
12781;BME280;6454;43.304;24.344;2023-04-08T04:23:02;100664.38;;;6.03;87.45
12781;BME280;6454;43.304;24.344;2023-04-08T04:25:29;100669.25;;;6.06;87.38
12781;BME280;6454;43.304;24.344;2023-04-08T04:27:56;100662.25;;;6.05;87.27
12781;BME280;6454;43.304;24.344;2023-04-08T04:30:23;100660.59;;;6.04;87.62
12781;BME280;6454;43.304;24.344;2023-04-08T04:32:50;100651.88;;;5.97;87.55
12781;BME280;6454;43.304;24.344;2023-04-08T04:35:18;100649.19;;;5.97;87.43
12781;BME280;6454;43.304;24.344;2023-04-08T04:37:45;100648.03;;;5.93;87.58
12781;BME280;6454;43.304;24.344;2023-04-08T04:40:14;100656.69;;;5.95;86.86
12781;BME280;6454;43.304;24.344;2023-04-08T04:42:41;100655.38;;;5.98;86.59
12781;BME280;6454;43.304;24.344;2023-04-08T04:45:09;100659.22;;;6.02;86.35
12781;BME280;6454;43.304;24.344;2023-04-08T04:47:36;100662.25;;;6.05;86.59
12781;BME280;6454;43.304;24.344;2023-04-08T04:50:04;100583.84;;;5.57;86.41
12781;BME280;6454;43.304;24.344;2023-04-08T04:52:34;100580.34;;;5.56;86.51
12781;BME280;6454;43.304;24.344;2023-04-08T04:55:01;100652.13;;;5.96;86.19
12781;BME280;6454;43.304;24.344;2023-04-08T04:57:28;100660.69;;;6.09;85.96
12781;BME280;6454;43.304;24.344;2023-04-08T04:59:55;100662.81;;;6.07;85.76
12781;BME280;6454;43.304;24.344;2023-04-08T05:02:22;100663.06;;;6.06;86.42
12781;BME280;6454;43.304;24.344;2023-04-08T05:04:49;100664.47;;;6.08;87.00
12781;BME280;6454;43.304;24.344;2023-04-08T05:07:18;100364.06;;;4.29;87.02
12781;BME280;6454;43.304;24.344;2023-04-08T05:09:46;100303.13;;;4.02;86.73
12781;BME280;6454;43.304;24.344;2023-04-08T05:12:14;100657.75;;;6.27;86.97
12781;BME280;6454;43.304;24.344;2023-04-08T05:14:41;100659.22;;;6.35;87.13
12781;BME280;6454;43.304;24.344;2023-04-08T05:17:08;100665.00;;;6.43;86.83
12781;BME280;6454;43.304;24.344;2023-04-08T05:19:35;100669.75;;;6.53;86.92
12781;BME280;6454;43.304;24.344;2023-04-08T05:22:02;100670.69;;;6.64;86.82
12781;BME280;6454;43.304;24.344;2023-04-08T05:24:28;100670.84;;;6.74;86.70
12781;BME280;6454;43.304;24.344;2023-04-08T05:26:57;100664.94;;;6.77;85.40
12781;BME280;6454;43.304;24.344;2023-04-08T05:29:23;100664.53;;;6.85;85.34
12781;BME280;6454;43.304;24.344;2023-04-08T05:31:50;100656.56;;;6.95;84.10
12781;BME280;6454;43.304;24.344;2023-04-08T05:34:17;100660.78;;;7.07;83.81
12781;BME280;6454;43.304;24.344;2023-04-08T05:36:47;100668.75;;;7.19;83.09
12781;BME280;6454;43.304;24.344;2023-04-08T05:39:16;100667.75;;;7.25;82.54
12781;BME280;6454;43.304;24.344;2023-04-08T05:41:43;100662.97;;;7.32;82.21
12781;BME280;6454;43.304;24.344;2023-04-08T05:44:11;100658.75;;;7.41;81.43
12781;BME280;6454;43.304;24.344;2023-04-08T05:46:38;100661.25;;;7.48;80.88
12781;BME280;6454;43.304;24.344;2023-04-08T05:49:05;100660.22;;;7.54;80.63
12781;BME280;6454;43.304;24.344;2023-04-08T05:51:32;100664.88;;;7.58;80.33
12781;BME280;6454;43.304;24.344;2023-04-08T05:53:59;100665.53;;;7.70;79.69
12781;BME280;6454;43.304;24.344;2023-04-08T05:56:26;100658.06;;;7.77;78.64
12781;BME280;6454;43.304;24.344;2023-04-08T05:58:52;100664.28;;;7.83;78.08
12781;BME280;6454;43.304;24.344;2023-04-08T06:01:20;100661.03;;;7.81;77.78
12781;BME280;6454;43.304;24.344;2023-04-08T06:03:47;100664.06;;;7.85;78.07
12781;BME280;6454;43.304;24.344;2023-04-08T06:06:14;100661.66;;;7.88;78.25
12781;BME280;6454;43.304;24.344;2023-04-08T06:08:41;100666.31;;;7.93;77.96
12781;BME280;6454;43.304;24.344;2023-04-08T06:11:08;100664.97;;;7.95;77.92
12781;BME280;6454;43.304;24.344;2023-04-08T06:13:35;100671.06;;;7.86;77.32
12781;BME280;6454;43.304;24.344;2023-04-08T06:16:09;100667.91;;;7.94;77.70
12781;BME280;6454;43.304;24.344;2023-04-08T06:18:38;100665.00;;;8.00;77.72
12781;BME280;6454;43.304;24.344;2023-04-08T06:21:05;100621.25;;;7.71;77.71
12781;BME280;6454;43.304;24.344;2023-04-08T06:23:31;100664.34;;;8.15;76.76
12781;BME280;6454;43.304;24.344;2023-04-08T06:25:58;100668.44;;;8.22;76.87
12781;BME280;6454;43.304;24.344;2023-04-08T06:28:25;100663.28;;;8.21;76.84
12781;BME280;6454;43.304;24.344;2023-04-08T06:30:54;100661.78;;;8.30;76.95
12781;BME280;6454;43.304;24.344;2023-04-08T06:33:21;100666.41;;;8.34;76.75
12781;BME280;6454;43.304;24.344;2023-04-08T06:35:49;100661.88;;;8.40;76.27
12781;BME280;6454;43.304;24.344;2023-04-08T06:38:16;100581.25;;;8.00;76.12
12781;BME280;6454;43.304;24.344;2023-04-08T06:40:43;100659.00;;;8.57;76.07
12781;BME280;6454;43.304;24.344;2023-04-08T06:43:10;100650.94;;;8.67;76.01
12781;BME280;6454;43.304;24.344;2023-04-08T06:45:36;100662.88;;;8.76;75.19
12781;BME280;6454;43.304;24.344;2023-04-08T06:48:03;100663.72;;;8.76;75.05
12781;BME280;6454;43.304;24.344;2023-04-08T06:50:31;100655.06;;;8.79;75.37
12781;BME280;6454;43.304;24.344;2023-04-08T06:52:59;100655.16;;;8.94;75.01
12781;BME280;6454;43.304;24.344;2023-04-08T06:55:26;100651.94;;;9.02;74.76
12781;BME280;6454;43.304;24.344;2023-04-08T06:57:52;100650.06;;;9.08;74.68
12781;BME280;6454;43.304;24.344;2023-04-08T07:00:19;100649.25;;;9.13;74.10
12781;BME280;6454;43.304;24.344;2023-04-08T07:02:46;100653.66;;;9.24;74.14
12781;BME280;6454;43.304;24.344;2023-04-08T07:05:13;100650.16;;;9.33;73.89
12781;BME280;6454;43.304;24.344;2023-04-08T07:07:40;100646.97;;;9.46;73.94
12781;BME280;6454;43.304;24.344;2023-04-08T07:10:09;100655.66;;;9.58;72.94
12781;BME280;6454;43.304;24.344;2023-04-08T07:12:36;100653.25;;;9.72;72.03
12781;BME280;6454;43.304;24.344;2023-04-08T07:15:03;100651.09;;;9.84;72.44
12781;BME280;6454;43.304;24.344;2023-04-08T07:17:30;100658.16;;;10.00;71.42
12781;BME280;6454;43.304;24.344;2023-04-08T07:19:58;100654.66;;;10.15;71.36
12781;BME280;6454;43.304;24.344;2023-04-08T07:22:25;100652.47;;;10.37;71.26
12781;BME280;6454;43.304;24.344;2023-04-08T07:24:52;100663.59;;;10.56;69.98
12781;BME280;6454;43.304;24.344;2023-04-08T07:27:20;100663.53;;;10.81;68.30
12781;BME280;6454;43.304;24.344;2023-04-08T07:29:51;100667.56;;;10.93;67.64
12781;BME280;6454;43.304;24.344;2023-04-08T07:32:18;100655.03;;;11.13;67.27
12781;BME280;6454;43.304;24.344;2023-04-08T07:34:45;100663.16;;;11.13;66.19
12781;BME280;6454;43.304;24.344;2023-04-08T07:37:12;100657.34;;;11.34;67.17
12781;BME280;6454;43.304;24.344;2023-04-08T07:39:38;100654.34;;;11.41;66.48
12781;BME280;6454;43.304;24.344;2023-04-08T07:42:05;100651.84;;;11.49;64.77
12781;BME280;6454;43.304;24.344;2023-04-08T07:44:33;100661.59;;;11.60;64.23
12781;BME280;6454;43.304;24.344;2023-04-08T07:47:00;100666.72;;;11.62;61.61
12781;BME280;6454;43.304;24.344;2023-04-08T07:49:27;100667.00;;;11.60;60.12
12781;BME280;6454;43.304;24.344;2023-04-08T07:51:54;100674.06;;;11.67;60.84
12781;BME280;6454;43.304;24.344;2023-04-08T07:54:21;100671.34;;;11.72;58.22
12781;BME280;6454;43.304;24.344;2023-04-08T07:56:48;100672.41;;;11.76;57.74
12781;BME280;6454;43.304;24.344;2023-04-08T07:59:15;100678.34;;;11.78;56.22
12781;BME280;6454;43.304;24.344;2023-04-08T08:01:43;100673.63;;;11.93;57.14
12781;BME280;6454;43.304;24.344;2023-04-08T08:04:11;100673.84;;;12.02;56.66
12781;BME280;6454;43.304;24.344;2023-04-08T08:06:38;100679.13;;;12.22;58.18
12781;BME280;6454;43.304;24.344;2023-04-08T08:09:04;100680.84;;;12.13;56.78
12781;BME280;6454;43.304;24.344;2023-04-08T08:11:31;100675.59;;;12.21;55.39
12781;BME280;6454;43.304;24.344;2023-04-08T08:13:58;100678.22;;;12.32;56.54
12781;BME280;6454;43.304;24.344;2023-04-08T08:16:27;100683.88;;;12.40;56.28
12781;BME280;6454;43.304;24.344;2023-04-08T08:18:55;100677.88;;;12.43;56.55
12781;BME280;6454;43.304;24.344;2023-04-08T08:21:22;100680.25;;;12.50;55.66
12781;BME280;6454;43.304;24.344;2023-04-08T08:23:51;100687.75;;;12.63;56.74
12781;BME280;6454;43.304;24.344;2023-04-08T08:26:17;100686.38;;;12.65;56.33
12781;BME280;6454;43.304;24.344;2023-04-08T08:28:45;100689.13;;;12.60;56.12
12781;BME280;6454;43.304;24.344;2023-04-08T08:31:12;100687.22;;;12.61;55.13
12781;BME280;6454;43.304;24.344;2023-04-08T08:33:39;100688.56;;;12.63;54.59
12781;BME280;6454;43.304;24.344;2023-04-08T08:36:07;100683.66;;;12.65;55.75
12781;BME280;6454;43.304;24.344;2023-04-08T08:38:34;100683.16;;;12.58;55.61
12781;BME280;6454;43.304;24.344;2023-04-08T08:41:01;100674.56;;;12.75;55.85
12781;BME280;6454;43.304;24.344;2023-04-08T08:43:29;100675.84;;;12.82;55.60
12781;BME280;6454;43.304;24.344;2023-04-08T08:45:58;100688.28;;;12.93;55.25
12781;BME280;6454;43.304;24.344;2023-04-08T08:48:25;100681.69;;;12.94;53.70
12781;BME280;6454;43.304;24.344;2023-04-08T08:50:52;100687.47;;;13.17;52.63
12781;BME280;6454;43.304;24.344;2023-04-08T08:53:20;100676.78;;;12.97;52.51
12781;BME280;6454;43.304;24.344;2023-04-08T08:55:49;100684.03;;;13.11;54.05
12781;BME280;6454;43.304;24.344;2023-04-08T08:58:16;100691.00;;;13.17;53.30
12781;BME280;6454;43.304;24.344;2023-04-08T09:00:43;100701.53;;;13.24;53.85
12781;BME280;6454;43.304;24.344;2023-04-08T09:03:18;100601.94;;;12.70;52.05
12781;BME280;6454;43.304;24.344;2023-04-08T09:05:52;100697.31;;;13.36;52.62
12781;BME280;6454;43.304;24.344;2023-04-08T09:08:29;100701.03;;;13.45;52.55
12781;BME280;6454;43.304;24.344;2023-04-08T09:11:10;100694.47;;;13.46;51.89
12781;BME280;6454;43.304;24.344;2023-04-08T09:13:37;100672.34;;;13.29;52.81
12781;BME280;6454;43.304;24.344;2023-04-08T09:16:05;100690.72;;;13.61;51.35
12781;BME280;6454;43.304;24.344;2023-04-08T09:18:33;100693.31;;;13.52;50.38
12781;BME280;6454;43.304;24.344;2023-04-08T09:21:00;100691.78;;;13.65;50.72
12781;BME280;6454;43.304;24.344;2023-04-08T09:23:40;100688.84;;;13.80;50.40
12781;BME280;6454;43.304;24.344;2023-04-08T09:26:09;100690.06;;;13.69;47.66
12781;BME280;6454;43.304;24.344;2023-04-08T09:28:36;100694.44;;;13.70;49.26
12781;BME280;6454;43.304;24.344;2023-04-08T09:31:17;100696.19;;;13.80;49.07
12781;BME280;6454;43.304;24.344;2023-04-08T09:33:45;100692.75;;;13.93;49.15
12781;BME280;6454;43.304;24.344;2023-04-08T09:36:13;100702.69;;;14.02;48.50
12781;BME280;6454;43.304;24.344;2023-04-08T09:38:41;100696.50;;;13.97;47.37
12781;BME280;6454;43.304;24.344;2023-04-08T09:41:12;100687.84;;;14.08;47.84
12781;BME280;6454;43.304;24.344;2023-04-08T09:43:41;100682.31;;;14.13;48.02
12781;BME280;6454;43.304;24.344;2023-04-08T09:46:14;100640.50;;;13.86;46.31
12781;BME280;6454;43.304;24.344;2023-04-08T09:48:53;100690.72;;;14.17;46.98
12781;BME280;6454;43.304;24.344;2023-04-08T09:51:23;100687.78;;;14.32;47.67
12781;BME280;6454;43.304;24.344;2023-04-08T09:53:57;100691.16;;;14.43;45.91
12781;BME280;6454;43.304;24.344;2023-04-08T09:56:28;100560.69;;;13.62;45.55
12781;BME280;6454;43.304;24.344;2023-04-08T09:58:59;100685.31;;;14.49;46.49
12781;BME280;6454;43.304;24.344;2023-04-08T10:01:34;100683.16;;;14.33;45.22
12781;BME280;6454;43.304;24.344;2023-04-08T10:04:04;100674.06;;;14.18;47.09
12781;BME280;6454;43.304;24.344;2023-04-08T10:06:33;100660.94;;;14.20;45.96
12781;BME280;6454;43.304;24.344;2023-04-08T10:09:02;100687.69;;;14.37;45.59
12781;BME280;6454;43.304;24.344;2023-04-08T10:11:30;100691.44;;;14.41;46.14
12781;BME280;6454;43.304;24.344;2023-04-08T10:13:57;100684.88;;;14.42;45.75
12781;BME280;6454;43.304;24.344;2023-04-08T10:16:25;100688.50;;;14.70;47.16
12781;BME280;6454;43.304;24.344;2023-04-08T10:18:53;100580.69;;;14.21;45.61
12781;BME280;6454;43.304;24.344;2023-04-08T10:21:40;100679.72;;;14.87;44.37
12781;BME280;6454;43.304;24.344;2023-04-08T10:24:13;100676.81;;;14.97;45.08
12781;BME280;6454;43.304;24.344;2023-04-08T10:26:42;100685.81;;;14.97;45.17
12781;BME280;6454;43.304;24.344;2023-04-08T10:29:42;100673.34;;;14.91;45.21
12781;BME280;6454;43.304;24.344;2023-04-08T10:32:28;100674.25;;;14.87;45.76
12781;BME280;6454;43.304;24.344;2023-04-08T10:34:55;100669.56;;;14.73;45.19
12781;BME280;6454;43.304;24.344;2023-04-08T10:37:22;100672.13;;;14.70;45.74
12781;BME280;6454;43.304;24.344;2023-04-08T10:39:53;100647.31;;;14.53;45.98
12781;BME280;6454;43.304;24.344;2023-04-08T10:42:26;100587.81;;;14.36;45.33
12781;BME280;6454;43.304;24.344;2023-04-08T10:44:53;100672.06;;;15.02;44.60
12781;BME280;6454;43.304;24.344;2023-04-08T10:47:24;100663.34;;;15.00;45.18
12781;BME280;6454;43.304;24.344;2023-04-08T10:49:52;100660.44;;;15.10;44.38
12781;BME280;6454;43.304;24.344;2023-04-08T10:52:19;100661.22;;;15.11;44.43
12781;BME280;6454;43.304;24.344;2023-04-08T10:54:47;100665.88;;;15.24;43.47
12781;BME280;6454;43.304;24.344;2023-04-08T10:57:22;100668.19;;;15.03;43.66
12781;BME280;6454;43.304;24.344;2023-04-08T10:59:50;100667.69;;;15.01;43.23
12781;BME280;6454;43.304;24.344;2023-04-08T11:02:17;100667.38;;;14.89;44.28
12781;BME280;6454;43.304;24.344;2023-04-08T11:04:44;100666.16;;;14.81;43.28
12781;BME280;6454;43.304;24.344;2023-04-08T11:07:12;100656.28;;;14.86;45.79
12781;BME280;6454;43.304;24.344;2023-04-08T11:09:39;100657.69;;;14.83;44.06
12781;BME280;6454;43.304;24.344;2023-04-08T11:12:06;100576.47;;;14.29;43.71
12781;BME280;6454;43.304;24.344;2023-04-08T11:14:35;100655.63;;;14.89;44.32
12781;BME280;6454;43.304;24.344;2023-04-08T11:17:02;100663.44;;;14.81;43.78
12781;BME280;6454;43.304;24.344;2023-04-08T11:19:30;100662.88;;;14.66;44.31
12781;BME280;6454;43.304;24.344;2023-04-08T11:21:57;100657.44;;;14.66;44.70
12781;BME280;6454;43.304;24.344;2023-04-08T11:24:24;100650.88;;;14.67;44.06
12781;BME280;6454;43.304;24.344;2023-04-08T11:26:51;100656.25;;;14.72;44.11
12781;BME280;6454;43.304;24.344;2023-04-08T11:29:19;100650.19;;;14.75;44.20
12781;BME280;6454;43.304;24.344;2023-04-08T11:31:48;100654.69;;;14.66;43.06
12781;BME280;6454;43.304;24.344;2023-04-08T11:34:21;100654.19;;;14.64;45.09
12781;BME280;6454;43.304;24.344;2023-04-08T11:36:49;100657.34;;;14.57;44.83
12781;BME280;6454;43.304;24.344;2023-04-08T11:39:15;100651.56;;;14.59;44.42
12781;BME280;6454;43.304;24.344;2023-04-08T11:41:42;100652.59;;;14.63;44.59
12781;BME280;6454;43.304;24.344;2023-04-08T11:44:09;100625.88;;;14.60;43.71
12781;BME280;6454;43.304;24.344;2023-04-08T11:46:36;100643.91;;;14.74;44.30
12781;BME280;6454;43.304;24.344;2023-04-08T11:49:07;100646.13;;;14.86;44.97
12781;BME280;6454;43.304;24.344;2023-04-08T11:51:53;100644.63;;;14.94;44.54
12781;BME280;6454;43.304;24.344;2023-04-08T11:54:26;100639.75;;;15.04;45.11
12781;BME280;6454;43.304;24.344;2023-04-08T11:56:54;100626.50;;;15.11;44.89
12781;BME280;6454;43.304;24.344;2023-04-08T11:59:22;100585.84;;;14.96;44.64
12781;BME280;6454;43.304;24.344;2023-04-08T12:01:50;100626.06;;;15.31;44.51
12781;BME280;6454;43.304;24.344;2023-04-08T12:04:18;100627.22;;;15.30;43.66
12781;BME280;6454;43.304;24.344;2023-04-08T12:06:45;100616.28;;;15.30;44.82
12781;BME280;6454;43.304;24.344;2023-04-08T12:09:12;100585.34;;;15.08;43.84
12781;BME280;6454;43.304;24.344;2023-04-08T12:11:39;100614.16;;;15.27;44.46
12781;BME280;6454;43.304;24.344;2023-04-08T12:14:06;100611.50;;;15.36;43.65
12781;BME280;6454;43.304;24.344;2023-04-08T12:16:34;100609.06;;;15.34;44.00
12781;BME280;6454;43.304;24.344;2023-04-08T12:19:01;100528.56;;;14.91;44.23
12781;BME280;6454;43.304;24.344;2023-04-08T12:21:29;100611.41;;;15.27;44.02
12781;BME280;6454;43.304;24.344;2023-04-08T12:23:56;100606.47;;;15.02;44.06
12781;BME280;6454;43.304;24.344;2023-04-08T12:26:23;100611.06;;;14.93;44.96
12781;BME280;6454;43.304;24.344;2023-04-08T12:28:51;100614.16;;;14.87;45.36
12781;BME280;6454;43.304;24.344;2023-04-08T12:31:18;100611.84;;;14.80;46.01
12781;BME280;6454;43.304;24.344;2023-04-08T12:33:45;100600.94;;;14.80;47.16
12781;BME280;6454;43.304;24.344;2023-04-08T12:36:12;100597.78;;;14.73;46.69
12781;BME280;6454;43.304;24.344;2023-04-08T12:38:41;100595.34;;;14.71;46.86
12781;BME280;6454;43.304;24.344;2023-04-08T12:41:07;100521.88;;;14.15;46.17
12781;BME280;6454;43.304;24.344;2023-04-08T12:43:34;100595.84;;;14.60;46.36
12781;BME280;6454;43.304;24.344;2023-04-08T12:46:02;100593.53;;;14.67;47.32
12781;BME280;6454;43.304;24.344;2023-04-08T12:48:30;100587.47;;;14.70;47.09
12781;BME280;6454;43.304;24.344;2023-04-08T12:50:57;100589.19;;;14.79;46.74
12781;BME280;6454;43.304;24.344;2023-04-08T12:53:24;100588.97;;;14.76;46.88
12781;BME280;6454;43.304;24.344;2023-04-08T12:55:52;100586.78;;;14.78;47.15
12781;BME280;6454;43.304;24.344;2023-04-08T12:58:22;100586.66;;;14.83;45.91
12781;BME280;6454;43.304;24.344;2023-04-08T13:00:49;100583.41;;;14.81;45.85